EGKB/BQH METAR and TAF weather

Enter ICAO airport designator
Station Type Date Time Source
EGKB METAR 2019/05/26 20:20 UTC NOAA

EGKB 262020Z 23007KT 9999 VCSH FEW020 SCT045 15/13 Q1011


Station Type Date Time Source
EGKB Decoded METAR 2019/05/26 20:20 UTC NOAA

Biggin Hill , United Kingdom (EGKB) 51-19N 000-02E
May 26, 2019 - 04:20 PM EDT / 2019.05.26 2020 UTC
Wind: from the SW (230 degrees) at 8 MPH (7 KT):0
Visibility: greater than 7 mile(s):0
Sky conditions: partly cloudy
Weather: showers in the vicinity
Temperature: 59 F (15 C)
Dew Point: 55 F (13 C)
Relative Humidity: 87%
Pressure (altimeter): 29.85 in. Hg (1011 hPa)
ob: EGKB 262020Z 23007KT 9999 VCSH FEW020 SCT045 15/13 Q1011
cycle: 20

Station Type Date Time Source
EGKB TAF 2018/11/11 18:33 UTC NOAA

TAF EGKB 110723Z 1018/1121 CNL

Example: see airport list